首页
METAR-TAF:

METAR-TAF

机场 :

Tarvisio, 意大利

纬度: 46-30N, 经度: 013-35E, 海拔: 777米

当前天气观测

该预报发布于1小时和5分钟前的08:55 UTC
风速3节,风向南转南东
温度 8°C
湿度 57%
气压 1013 hPa
能见度10公里或以上
少量云层高于3500英尺

METAR: LIVO 290855Z 15003KT 9999 FEW035 08/00 Q1013 RMK FEW VIS MIN 9999

时间: 12:00 (10:00 UTC)


TAF: 丢失

超过4000个机场的气象观测和天气预报(METAR&TAF报告)。

可查询的气象台以黄色和红色小点在地图上表示。

将鼠标移到小点上方,可查看气象台名称。

然后点击查看天气观测和预报。

如需切换地图:点击带黑十字的绿色按钮放大地图;点击带横线的绿色按钮缩小地图;或者点击绿色箭头查看邻近地区的地图。


METAR-TAF: